sensor_id;sensor_type;location;lat;lon;timestamp;pressure;altitude;pressure_sealevel;temperature;humidity
78667;BME280;67983;59.830;30.198;2023-05-29T06:13:24;101329.56;;;14.93;56.33
78667;BME280;67983;59.830;30.198;2023-05-29T06:16:16;101322.00;;;15.58;55.29
78667;BME280;67983;59.830;30.198;2023-05-29T06:18:44;101325.88;;;16.00;54.12
78667;BME280;67983;59.830;30.198;2023-05-29T06:21:12;101321.72;;;16.29;53.42
78667;BME280;67983;59.830;30.198;2023-05-29T06:23:48;101318.38;;;16.59;51.88
78667;BME280;67983;59.830;30.198;2023-05-29T06:26:15;101316.78;;;16.79;51.02
78667;BME280;67983;59.830;30.198;2023-05-29T06:28:44;101316.03;;;16.88;50.34
78667;BME280;67983;59.830;30.198;2023-05-29T06:31:12;101316.81;;;17.00;49.79
78667;BME280;67983;59.830;30.198;2023-05-29T06:33:39;101317.03;;;17.08;48.83
78667;BME280;67983;59.830;30.198;2023-05-29T06:36:07;101322.91;;;17.02;48.48
78667;BME280;67983;59.830;30.198;2023-05-29T06:38:37;101324.44;;;17.16;48.36
78667;BME280;67983;59.830;30.198;2023-05-29T06:41:04;101331.66;;;17.36;48.23
78667;BME280;67983;59.830;30.198;2023-05-29T06:43:33;101323.66;;;17.67;47.74
78667;BME280;67983;59.830;30.198;2023-05-29T06:46:04;101322.16;;;17.95;47.00
78667;BME280;67983;59.830;30.198;2023-05-29T06:48:35;101318.41;;;18.16;46.55
78667;BME280;67983;59.830;30.198;2023-05-29T06:51:04;101322.75;;;18.38;45.66
78667;BME280;67983;59.830;30.198;2023-05-29T06:53:40;101327.88;;;18.61;45.05
78667;BME280;67983;59.830;30.198;2023-05-29T06:56:09;101324.97;;;18.73;44.81
78667;BME280;67983;59.830;30.198;2023-05-29T06:58:38;101337.28;;;18.76;43.89
78667;BME280;67983;59.830;30.198;2023-05-29T07:01:08;101330.78;;;18.69;43.73
78667;BME280;67983;59.830;30.198;2023-05-29T07:03:43;101341.66;;;18.67;42.98
78667;BME280;67983;59.830;30.198;2023-05-29T07:06:10;101347.22;;;18.85;42.53
78667;BME280;67983;59.830;30.198;2023-05-29T07:08:37;101344.53;;;19.14;42.59
78667;BME280;67983;59.830;30.198;2023-05-29T07:11:05;101349.06;;;19.23;41.01
78667;BME280;67983;59.830;30.198;2023-05-29T07:13:36;101344.25;;;19.27;41.67
78667;BME280;67983;59.830;30.198;2023-05-29T07:16:05;101339.03;;;19.54;41.99
78667;BME280;67983;59.830;30.198;2023-05-29T07:18:35;101350.97;;;19.89;42.01
78667;BME280;67983;59.830;30.198;2023-05-29T07:21:02;101348.41;;;20.07;41.99
78667;BME280;67983;59.830;30.198;2023-05-29T07:23:30;101351.19;;;20.15;42.02
78667;BME280;67983;59.830;30.198;2023-05-29T07:26:01;101354.19;;;20.12;41.93
78667;BME280;67983;59.830;30.198;2023-05-29T07:28:30;101347.81;;;20.03;42.13
78667;BME280;67983;59.830;30.198;2023-05-29T07:30:57;101358.78;;;19.92;42.33
78667;BME280;67983;59.830;30.198;2023-05-29T07:33:25;101373.44;;;19.70;43.88
78667;BME280;67983;59.830;30.198;2023-05-29T07:35:56;101366.38;;;19.30;45.33
78667;BME280;67983;59.830;30.198;2023-05-29T07:38:25;101370.16;;;18.89;46.42
78667;BME280;67983;59.830;30.198;2023-05-29T07:40:52;101365.28;;;18.64;47.21
78667;BME280;67983;59.830;30.198;2023-05-29T07:43:29;101370.28;;;18.47;47.92
78667;BME280;67983;59.830;30.198;2023-05-29T07:46:00;101370.16;;;18.49;48.11
78667;BME280;67983;59.830;30.198;2023-05-29T07:48:28;101371.75;;;18.61;47.71
78667;BME280;67983;59.830;30.198;2023-05-29T07:51:00;101370.50;;;18.65;47.41
78667;BME280;67983;59.830;30.198;2023-05-29T07:53:32;101369.81;;;18.63;47.50
78667;BME280;67983;59.830;30.198;2023-05-29T07:56:02;101373.66;;;18.70;47.48
78667;BME280;67983;59.830;30.198;2023-05-29T07:58:29;101372.53;;;18.83;47.15
78667;BME280;67983;59.830;30.198;2023-05-29T08:00:56;101377.22;;;18.90;46.89
78667;BME280;67983;59.830;30.198;2023-05-29T08:03:23;101386.41;;;18.97;46.84
78667;BME280;67983;59.830;30.198;2023-05-29T08:06:20;101382.63;;;19.00;46.37
78667;BME280;67983;59.830;30.198;2023-05-29T08:08:50;101384.72;;;18.96;45.13
78667;BME280;67983;59.830;30.198;2023-05-29T08:11:18;101373.25;;;18.85;45.21
78667;BME280;67983;59.830;30.198;2023-05-29T08:13:47;101371.50;;;18.64;45.90
78667;BME280;67983;59.830;30.198;2023-05-29T08:16:16;101380.38;;;18.55;45.84
78667;BME280;67983;59.830;30.198;2023-05-29T08:18:43;101376.59;;;18.37;46.28
78667;BME280;67983;59.830;30.198;2023-05-29T08:21:11;101371.88;;;18.19;46.68
78667;BME280;67983;59.830;30.198;2023-05-29T08:23:39;101381.53;;;18.01;47.77
78667;BME280;67983;59.830;30.198;2023-05-29T08:26:07;101369.00;;;17.81;48.05
78667;BME280;67983;59.830;30.198;2023-05-29T08:28:35;101375.28;;;17.70;48.05
78667;BME280;67983;59.830;30.198;2023-05-29T08:31:02;101367.38;;;17.57;48.42
78667;BME280;67983;59.830;30.198;2023-05-29T08:33:32;101367.78;;;17.53;48.62
78667;BME280;67983;59.830;30.198;2023-05-29T08:35:59;101374.94;;;17.63;48.07
78667;BME280;67983;59.830;30.198;2023-05-29T08:38:27;101377.31;;;17.78;47.12
78667;BME280;67983;59.830;30.198;2023-05-29T08:40:57;101381.75;;;17.88;46.56
78667;BME280;67983;59.830;30.198;2023-05-29T08:43:25;101379.91;;;18.10;45.84
78667;BME280;67983;59.830;30.198;2023-05-29T08:45:59;101375.59;;;18.28;44.55
78667;BME280;67983;59.830;30.198;2023-05-29T08:48:29;101372.03;;;18.58;44.12
78667;BME280;67983;59.830;30.198;2023-05-29T08:50:57;101373.38;;;18.83;43.39
78667;BME280;67983;59.830;30.198;2023-05-29T08:53:25;101377.38;;;18.89;43.00
78667;BME280;67983;59.830;30.198;2023-05-29T08:55:52;101383.88;;;18.86;42.12
78667;BME280;67983;59.830;30.198;2023-05-29T08:58:23;101391.50;;;18.81;42.46
78667;BME280;67983;59.830;30.198;2023-05-29T09:00:50;101392.06;;;18.75;42.23
78667;BME280;67983;59.830;30.198;2023-05-29T09:03:17;101388.72;;;18.62;42.39
78667;BME280;67983;59.830;30.198;2023-05-29T09:05:48;101398.16;;;18.46;43.07
78667;BME280;67983;59.830;30.198;2023-05-29T09:08:15;101412.13;;;18.40;43.32
78667;BME280;67983;59.830;30.198;2023-05-29T09:10:44;101404.28;;;18.28;43.48
78667;BME280;67983;59.830;30.198;2023-05-29T09:13:13;101411.81;;;18.34;43.73
78667;BME280;67983;59.830;30.198;2023-05-29T09:15:43;101403.81;;;18.43;43.35
78667;BME280;67983;59.830;30.198;2023-05-29T09:18:11;101407.63;;;18.50;43.87
78667;BME280;67983;59.830;30.198;2023-05-29T09:20:38;101399.00;;;18.47;44.24
78667;BME280;67983;59.830;30.198;2023-05-29T09:23:07;101402.47;;;18.38;44.53
78667;BME280;67983;59.830;30.198;2023-05-29T09:25:36;101389.03;;;18.28;44.91
78667;BME280;67983;59.830;30.198;2023-05-29T09:28:08;101383.94;;;18.25;45.05
78667;BME280;67983;59.830;30.198;2023-05-29T09:30:38;101384.50;;;18.29;45.08
78667;BME280;67983;59.830;30.198;2023-05-29T09:33:10;101398.50;;;18.23;45.02
78667;BME280;67983;59.830;30.198;2023-05-29T09:35:38;101393.81;;;18.25;43.02
78667;BME280;67983;59.830;30.198;2023-05-29T09:38:06;101385.28;;;18.19;41.81
78667;BME280;67983;59.830;30.198;2023-05-29T09:40:35;101385.06;;;18.23;41.66
78667;BME280;67983;59.830;30.198;2023-05-29T09:43:09;101399.13;;;18.45;40.67
78667;BME280;67983;59.830;30.198;2023-05-29T09:45:39;101395.66;;;18.55;39.84
78667;BME280;67983;59.830;30.198;2023-05-29T09:48:13;101403.47;;;18.37;39.99
78667;BME280;67983;59.830;30.198;2023-05-29T09:50:41;101400.84;;;18.16;40.22
78667;BME280;67983;59.830;30.198;2023-05-29T09:53:16;101399.63;;;17.99;40.72
78667;BME280;67983;59.830;30.198;2023-05-29T09:55:48;101405.13;;;17.98;40.40
78667;BME280;67983;59.830;30.198;2023-05-29T09:58:17;101407.00;;;18.07;39.82
78667;BME280;67983;59.830;30.198;2023-05-29T10:00:45;101398.72;;;18.19;39.14
78667;BME280;67983;59.830;30.198;2023-05-29T10:03:14;101404.56;;;18.25;37.71
78667;BME280;67983;59.830;30.198;2023-05-29T10:05:43;101410.25;;;18.31;37.04
78667;BME280;67983;59.830;30.198;2023-05-29T10:08:12;101402.63;;;18.36;36.09
78667;BME280;67983;59.830;30.198;2023-05-29T10:10:41;101403.22;;;18.40;35.61
78667;BME280;67983;59.830;30.198;2023-05-29T10:13:11;101413.00;;;18.50;35.08
78667;BME280;67983;59.830;30.198;2023-05-29T10:15:41;101414.03;;;18.90;34.48
78667;BME280;67983;59.830;30.198;2023-05-29T10:18:16;101408.56;;;19.39;32.20
78667;BME280;67983;59.830;30.198;2023-05-29T10:20:49;101401.34;;;19.40;31.64
78667;BME280;67983;59.830;30.198;2023-05-29T10:23:18;101415.66;;;19.31;32.55
78667;BME280;67983;59.830;30.198;2023-05-29T10:25:51;101418.47;;;19.20;32.78
78667;BME280;67983;59.830;30.198;2023-05-29T10:28:22;101418.16;;;19.03;32.83
78667;BME280;67983;59.830;30.198;2023-05-29T10:30:54;101424.66;;;19.10;32.46
78667;BME280;67983;59.830;30.198;2023-05-29T10:33:41;101422.56;;;19.04;32.80
78667;BME280;67983;59.830;30.198;2023-05-29T10:36:14;101439.41;;;19.06;32.39
78667;BME280;67983;59.830;30.198;2023-05-29T10:38:43;101429.16;;;18.91;32.56
78667;BME280;67983;59.830;30.198;2023-05-29T10:41:30;101429.41;;;18.78;32.95
78667;BME280;67983;59.830;30.198;2023-05-29T10:44:01;101446.63;;;18.66;32.72
78667;BME280;67983;59.830;30.198;2023-05-29T10:47:06;101434.25;;;18.54;32.99
78667;BME280;67983;59.830;30.198;2023-05-29T10:49:35;101437.66;;;18.56;32.69
78667;BME280;67983;59.830;30.198;2023-05-29T10:52:04;101442.63;;;18.60;32.55
78667;BME280;67983;59.830;30.198;2023-05-29T10:54:54;101446.44;;;18.58;33.25
78667;BME280;67983;59.830;30.198;2023-05-29T10:57:24;101430.97;;;18.80;33.61
78667;BME280;67983;59.830;30.198;2023-05-29T11:00:15;101453.59;;;19.18;33.53
78667;BME280;67983;59.830;30.198;2023-05-29T11:02:46;101450.31;;;19.24;33.51
78667;BME280;67983;59.830;30.198;2023-05-29T11:05:22;101450.06;;;19.37;33.19
78667;BME280;67983;59.830;30.198;2023-05-29T11:07:55;101458.13;;;19.37;33.11
78667;BME280;67983;59.830;30.198;2023-05-29T11:10:44;101462.25;;;19.51;33.00
